sensor_id;sensor_type;location;lat;lon;timestamp;pressure;altitude;pressure_sealevel;temperature;humidity
8894;BME280;4483;48.622;9.230;2023-05-12T00:02:10;97574.00;;;10.96;100.00
8894;BME280;4483;48.622;9.230;2023-05-12T00:04:37;97565.44;;;10.96;100.00
8894;BME280;4483;48.622;9.230;2023-05-12T00:07:06;97570.44;;;10.99;100.00
8894;BME280;4483;48.622;9.230;2023-05-12T00:09:33;97568.84;;;10.96;100.00
8894;BME280;4483;48.622;9.230;2023-05-12T00:12:00;97565.59;;;10.93;100.00
8894;BME280;4483;48.622;9.230;2023-05-12T00:14:28;97564.88;;;10.89;100.00
8894;BME280;4483;48.622;9.230;2023-05-12T00:16:54;97566.56;;;10.90;100.00
8894;BME280;4483;48.622;9.230;2023-05-12T00:19:21;97560.47;;;10.91;100.00
8894;BME280;4483;48.622;9.230;2023-05-12T00:21:47;97559.59;;;10.92;100.00
8894;BME280;4483;48.622;9.230;2023-05-12T00:24:15;97563.81;;;10.93;100.00
8894;BME280;4483;48.622;9.230;2023-05-12T00:26:42;97556.09;;;10.93;100.00
8894;BME280;4483;48.622;9.230;2023-05-12T00:29:08;97559.59;;;10.92;100.00
8894;BME280;4483;48.622;9.230;2023-05-12T00:31:35;97551.94;;;10.91;100.00
8894;BME280;4483;48.622;9.230;2023-05-12T00:34:01;97549.34;;;10.91;100.00
8894;BME280;4483;48.622;9.230;2023-05-12T00:36:28;97547.59;;;10.91;100.00
8894;BME280;4483;48.622;9.230;2023-05-12T00:38:55;97555.41;;;10.90;100.00
8894;BME280;4483;48.622;9.230;2023-05-12T00:41:24;97555.47;;;10.88;100.00
8894;BME280;4483;48.622;9.230;2023-05-12T00:43:50;97553.81;;;10.87;100.00
8894;BME280;4483;48.622;9.230;2023-05-12T00:46:17;97547.19;;;10.82;100.00
8894;BME280;4483;48.622;9.230;2023-05-12T00:48:44;97555.91;;;10.79;100.00
8894;BME280;4483;48.622;9.230;2023-05-12T00:51:11;97549.97;;;10.77;100.00
8894;BME280;4483;48.622;9.230;2023-05-12T00:53:38;97548.16;;;10.79;100.00
8894;BME280;4483;48.622;9.230;2023-05-12T00:56:06;97549.09;;;10.78;100.00
8894;BME280;4483;48.622;9.230;2023-05-12T00:58:34;97547.31;;;10.79;100.00
8894;BME280;4483;48.622;9.230;2023-05-12T01:01:00;97547.47;;;10.76;100.00
8894;BME280;4483;48.622;9.230;2023-05-12T01:03:27;97550.91;;;10.76;100.00
8894;BME280;4483;48.622;9.230;2023-05-12T01:05:59;97544.06;;;10.75;100.00
8894;BME280;4483;48.622;9.230;2023-05-12T01:08:26;97551.66;;;10.78;100.00
8894;BME280;4483;48.622;9.230;2023-05-12T01:10:53;97549.13;;;10.77;100.00
8894;BME280;4483;48.622;9.230;2023-05-12T01:13:20;97561.19;;;10.76;100.00
8894;BME280;4483;48.622;9.230;2023-05-12T01:15:48;97557.97;;;10.71;100.00
8894;BME280;4483;48.622;9.230;2023-05-12T01:18:18;97559.84;;;10.68;100.00
8894;BME280;4483;48.622;9.230;2023-05-12T01:20:46;97556.66;;;10.63;100.00
8894;BME280;4483;48.622;9.230;2023-05-12T01:23:15;97552.28;;;10.65;100.00
8894;BME280;4483;48.622;9.230;2023-05-12T01:25:45;97556.50;;;10.66;100.00
8894;BME280;4483;48.622;9.230;2023-05-12T01:28:14;97552.19;;;10.66;100.00
8894;BME280;4483;48.622;9.230;2023-05-12T01:30:42;97553.75;;;10.70;100.00
8894;BME280;4483;48.622;9.230;2023-05-12T01:33:09;97555.41;;;10.71;100.00
8894;BME280;4483;48.622;9.230;2023-05-12T01:35:35;97556.25;;;10.72;100.00
8894;BME280;4483;48.622;9.230;2023-05-12T01:38:02;97549.44;;;10.71;100.00
8894;BME280;4483;48.622;9.230;2023-05-12T01:40:28;97549.44;;;10.71;100.00
8894;BME280;4483;48.622;9.230;2023-05-12T01:42:55;97550.31;;;10.70;100.00
8894;BME280;4483;48.622;9.230;2023-05-12T01:45:23;97551.09;;;10.72;100.00
8894;BME280;4483;48.622;9.230;2023-05-12T01:47:50;97550.25;;;10.71;100.00
8894;BME280;4483;48.622;9.230;2023-05-12T01:50:16;97551.94;;;10.72;100.00
8894;BME280;4483;48.622;9.230;2023-05-12T01:52:43;97554.50;;;10.72;100.00
8894;BME280;4483;48.622;9.230;2023-05-12T01:55:10;97553.59;;;10.73;100.00
8894;BME280;4483;48.622;9.230;2023-05-12T01:57:38;97546.84;;;10.71;100.00
8894;BME280;4483;48.622;9.230;2023-05-12T02:00:05;97545.84;;;10.73;100.00
8894;BME280;4483;48.622;9.230;2023-05-12T02:02:34;97550.13;;;10.74;100.00
8894;BME280;4483;48.622;9.230;2023-05-12T02:05:01;97548.59;;;10.70;100.00
8894;BME280;4483;48.622;9.230;2023-05-12T02:07:27;97551.31;;;10.67;100.00
8894;BME280;4483;48.622;9.230;2023-05-12T02:09:54;97550.53;;;10.65;100.00
8894;BME280;4483;48.622;9.230;2023-05-12T02:12:20;97550.53;;;10.65;100.00
8894;BME280;4483;48.622;9.230;2023-05-12T02:14:47;97542.81;;;10.65;100.00
8894;BME280;4483;48.622;9.230;2023-05-12T02:17:14;97546.09;;;10.69;100.00
8894;BME280;4483;48.622;9.230;2023-05-12T02:19:42;97539.19;;;10.69;100.00
8894;BME280;4483;48.622;9.230;2023-05-12T02:22:09;97546.94;;;10.69;100.00
8894;BME280;4483;48.622;9.230;2023-05-12T02:24:35;97542.50;;;10.71;100.00
8894;BME280;4483;48.622;9.230;2023-05-12T02:27:02;97542.47;;;10.73;100.00
8894;BME280;4483;48.622;9.230;2023-05-12T02:29:29;97545.94;;;10.72;100.00
8894;BME280;4483;48.622;9.230;2023-05-12T02:31:55;97542.50;;;10.71;100.00
8894;BME280;4483;48.622;9.230;2023-05-12T02:34:22;97542.50;;;10.71;100.00
8894;BME280;4483;48.622;9.230;2023-05-12T02:36:50;97545.09;;;10.71;100.00
8894;BME280;4483;48.622;9.230;2023-05-12T02:39:16;97536.63;;;10.69;100.00
8894;BME280;4483;48.622;9.230;2023-05-12T02:41:43;97548.59;;;10.70;100.00
8894;BME280;4483;48.622;9.230;2023-05-12T02:44:10;97552.00;;;10.71;100.00
8894;BME280;4483;48.622;9.230;2023-05-12T02:46:36;97556.25;;;10.72;100.00
8894;BME280;4483;48.622;9.230;2023-05-12T02:49:03;97545.09;;;10.71;100.00
8894;BME280;4483;48.622;9.230;2023-05-12T02:51:29;97538.13;;;10.73;100.00
8894;BME280;4483;48.622;9.230;2023-05-12T02:53:57;97541.56;;;10.74;100.00
8894;BME280;4483;48.622;9.230;2023-05-12T02:56:24;97545.09;;;10.71;100.00
8894;BME280;4483;48.622;9.230;2023-05-12T02:58:51;97548.59;;;10.70;100.00
8894;BME280;4483;48.622;9.230;2023-05-12T03:01:17;97540.84;;;10.70;100.00
8894;BME280;4483;48.622;9.230;2023-05-12T03:03:44;97545.31;;;10.67;100.00
8894;BME280;4483;48.622;9.230;2023-05-12T03:06:10;97544.19;;;10.72;100.00
8894;BME280;4483;48.622;9.230;2023-05-12T03:08:37;97553.53;;;10.75;100.00
8894;BME280;4483;48.622;9.230;2023-05-12T03:11:05;97539.94;;;10.71;100.00
8894;BME280;4483;48.622;9.230;2023-05-12T03:13:31;97550.75;;;10.79;100.00
8894;BME280;4483;48.622;9.230;2023-05-12T03:15:58;97549.09;;;10.78;100.00
8894;BME280;4483;48.622;9.230;2023-05-12T03:18:25;97545.59;;;10.79;100.00
8894;BME280;4483;48.622;9.230;2023-05-12T03:20:52;97550.75;;;10.79;100.00
8894;BME280;4483;48.622;9.230;2023-05-12T03:23:18;97552.47;;;10.79;100.00
8894;BME280;4483;48.622;9.230;2023-05-12T03:25:45;97547.31;;;10.79;100.00
8894;BME280;4483;48.622;9.230;2023-05-12T03:28:13;97553.31;;;10.79;100.00
8894;BME280;4483;48.622;9.230;2023-05-12T03:30:40;97549.00;;;10.80;100.00
8894;BME280;4483;48.622;9.230;2023-05-12T03:33:06;97543.00;;;10.79;100.00
8894;BME280;4483;48.622;9.230;2023-05-12T03:35:33;97541.28;;;10.80;100.00
8894;BME280;4483;48.622;9.230;2023-05-12T03:38:00;97537.00;;;10.79;100.00
8894;BME280;4483;48.622;9.230;2023-05-12T03:40:26;97541.28;;;10.80;100.00
8894;BME280;4483;48.622;9.230;2023-05-12T03:42:53;97543.78;;;10.81;100.00
8894;BME280;4483;48.622;9.230;2023-05-12T03:45:21;97540.28;;;10.82;100.00
8894;BME280;4483;48.622;9.230;2023-05-12T03:47:47;97535.00;;;10.85;100.00
8894;BME280;4483;48.622;9.230;2023-05-12T03:50:14;97536.66;;;10.86;100.00
8894;BME280;4483;48.622;9.230;2023-05-12T03:52:41;97539.94;;;10.90;100.00
8894;BME280;4483;48.622;9.230;2023-05-12T03:55:07;97537.28;;;10.91;100.00
8894;BME280;4483;48.622;9.230;2023-05-12T03:57:34;97538.97;;;10.92;100.00
8894;BME280;4483;48.622;9.230;2023-05-12T04:00:03;97527.69;;;10.95;100.00
8894;BME280;4483;48.622;9.230;2023-05-12T04:02:31;97530.31;;;10.93;100.00
8894;BME280;4483;48.622;9.230;2023-05-12T04:04:58;97537.00;;;10.97;100.00
8894;BME280;4483;48.622;9.230;2023-05-12T04:07:24;97537.75;;;10.99;100.00
8894;BME280;4483;48.622;9.230;2023-05-12T04:09:51;97533.44;;;11.00;100.00
8894;BME280;4483;48.622;9.230;2023-05-12T04:12:18;97536.88;;;11.00;100.00
8894;BME280;4483;48.622;9.230;2023-05-12T04:14:44;97536.91;;;10.99;100.00
8894;BME280;4483;48.622;9.230;2023-05-12T04:17:11;97540.34;;;10.99;100.00
8894;BME280;4483;48.622;9.230;2023-05-12T04:19:39;97533.53;;;10.98;100.00
8894;BME280;4483;48.622;9.230;2023-05-12T04:22:05;97536.88;;;11.00;100.00
8894;BME280;4483;48.622;9.230;2023-05-12T04:24:32;97539.16;;;11.06;100.00
8894;BME280;4483;48.622;9.230;2023-05-12T04:26:58;97542.50;;;11.08;100.00
8894;BME280;4483;48.622;9.230;2023-05-12T04:29:25;97540.69;;;11.10;100.00
8894;BME280;4483;48.622;9.230;2023-05-12T04:31:53;97548.41;;;11.10;100.00
8894;BME280;4483;48.622;9.230;2023-05-12T04:34:19;97549.19;;;11.12;100.00
8894;BME280;4483;48.622;9.230;2023-05-12T04:36:47;97551.69;;;11.14;100.00
8894;BME280;4483;48.622;9.230;2023-05-12T04:39:14;97556.75;;;11.15;100.00
8894;BME280;4483;48.622;9.230;2023-05-12T04:41:40;97546.38;;;11.17;100.00
8894;BME280;4483;48.622;9.230;2023-05-12T04:44:07;97547.09;;;11.21;100.00
8894;BME280;4483;48.622;9.230;2023-05-12T04:46:34;97547.81;;;11.23;100.00
8894;BME280;4483;48.622;9.230;2023-05-12T04:49:00;97551.16;;;11.25;100.00
8894;BME280;4483;48.622;9.230;2023-05-12T04:51:27;97544.06;;;11.30;100.00
8894;BME280;4483;48.622;9.230;2023-05-12T04:53:55;97555.88;;;11.34;100.00
8894;BME280;4483;48.622;9.230;2023-05-12T04:56:21;97554.91;;;11.36;100.00
8894;BME280;4483;48.622;9.230;2023-05-12T04:58:48;97557.31;;;11.39;100.00
8894;BME280;4483;48.622;9.230;2023-05-12T05:01:14;97559.84;;;11.41;100.00
8894;BME280;4483;48.622;9.230;2023-05-12T05:03:41;97562.28;;;11.44;100.00
8894;BME280;4483;48.622;9.230;2023-05-12T05:06:08;97562.28;;;11.44;100.00
8894;BME280;4483;48.622;9.230;2023-05-12T05:08:34;97560.47;;;11.46;100.00
8894;BME280;4483;48.622;9.230;2023-05-12T05:11:02;97563.72;;;11.49;100.00
8894;BME280;4483;48.622;9.230;2023-05-12T05:13:29;97560.22;;;11.50;100.00
8894;BME280;4483;48.622;9.230;2023-05-12T05:15:55;97564.13;;;11.59;100.00
8894;BME280;4483;48.622;9.230;2023-05-12T05:18:22;97560.47;;;11.63;100.00
8894;BME280;4483;48.622;9.230;2023-05-12T05:20:49;97564.59;;;11.67;100.00
8894;BME280;4483;48.622;9.230;2023-05-12T05:23:15;97567.94;;;11.69;100.00
8894;BME280;4483;48.622;9.230;2023-05-12T05:25:42;97569.63;;;11.70;100.00
8894;BME280;4483;48.622;9.230;2023-05-12T05:28:10;97573.69;;;11.74;100.00
8894;BME280;4483;48.622;9.230;2023-05-12T05:30:36;97571.06;;;11.75;100.00
8894;BME280;4483;48.622;9.230;2023-05-12T05:33:03;97577.81;;;11.78;100.00
8894;BME280;4483;48.622;9.230;2023-05-12T05:35:30;97576.66;;;11.83;100.00
8894;BME280;4483;48.622;9.230;2023-05-12T05:37:56;97581.53;;;11.89;100.00
8894;BME280;4483;48.622;9.230;2023-05-12T05:40:23;97589.03;;;11.94;100.00
8894;BME280;4483;48.622;9.230;2023-05-12T05:42:50;97578.66;;;11.95;100.00
8894;BME280;4483;48.622;9.230;2023-05-12T05:45:18;97581.00;;;12.00;100.00
8894;BME280;4483;48.622;9.230;2023-05-12T05:47:44;97579.94;;;12.04;100.00
8894;BME280;4483;48.622;9.230;2023-05-12T05:50:14;97585.09;;;12.04;100.00
8894;BME280;4483;48.622;9.230;2023-05-12T05:52:41;97579.16;;;12.02;100.00
8894;BME280;4483;48.622;9.230;2023-05-12T05:55:08;97582.50;;;12.04;100.00
8894;BME280;4483;48.622;9.230;2023-05-12T05:57:34;97574.59;;;12.07;100.00
8894;BME280;4483;48.622;9.230;2023-05-12T06:00:02;97570.53;;;12.03;100.00
8894;BME280;4483;48.622;9.230;2023-05-12T06:02:30;97587.03;;;12.16;100.00
8894;BME280;4483;48.622;9.230;2023-05-12T06:04:57;97584.31;;;12.19;100.00
8894;BME280;4483;48.622;9.230;2023-05-12T06:07:25;97589.03;;;12.28;100.00
8894;BME280;4483;48.622;9.230;2023-05-12T06:09:52;97585.88;;;12.39;100.00
8894;BME280;4483;48.622;9.230;2023-05-12T06:12:18;97593.22;;;12.46;100.00
8894;BME280;4483;48.622;9.230;2023-05-12T06:14:45;97594.50;;;12.55;100.00
8894;BME280;4483;48.622;9.230;2023-05-12T06:17:12;97604.53;;;12.61;100.00
8894;BME280;4483;48.622;9.230;2023-05-12T06:19:40;97603.13;;;12.71;100.00
8894;BME280;4483;48.622;9.230;2023-05-12T06:22:06;97595.78;;;12.79;100.00
8894;BME280;4483;48.622;9.230;2023-05-12T06:24:33;97595.56;;;12.83;100.00
8894;BME280;4483;48.622;9.230;2023-05-12T06:26:59;97599.31;;;12.93;100.00
8894;BME280;4483;48.622;9.230;2023-05-12T06:29:26;97597.94;;;13.03;100.00
8894;BME280;4483;48.622;9.230;2023-05-12T06:31:53;97598.34;;;13.11;100.00
8894;BME280;4483;48.622;9.230;2023-05-12T06:34:19;97597.03;;;13.20;100.00
8894;BME280;4483;48.622;9.230;2023-05-12T06:36:47;97598.09;;;13.32;100.00
8894;BME280;4483;48.622;9.230;2023-05-12T06:39:14;97600.81;;;13.44;100.00
8894;BME280;4483;48.622;9.230;2023-05-12T06:41:41;97603.66;;;13.55;100.00
8894;BME280;4483;48.622;9.230;2023-05-12T06:44:07;97597.16;;;13.64;100.00
8894;BME280;4483;48.622;9.230;2023-05-12T06:46:37;97599.44;;;13.68;100.00
8894;BME280;4483;48.622;9.230;2023-05-12T06:49:03;97587.91;;;13.74;100.00
8894;BME280;4483;48.622;9.230;2023-05-12T06:51:30;97593.69;;;13.79;100.00
8894;BME280;4483;48.622;9.230;2023-05-12T06:53:58;97593.75;;;13.77;100.00
8894;BME280;4483;48.622;9.230;2023-05-12T06:56:25;97599.78;;;13.78;100.00
8894;BME280;4483;48.622;9.230;2023-05-12T06:58:53;97589.59;;;13.75;100.00
8894;BME280;4483;48.622;9.230;2023-05-12T07:01:25;97590.91;;;13.82;100.00
8894;BME280;4483;48.622;9.230;2023-05-12T07:03:52;97597.59;;;13.86;100.00
8894;BME280;4483;48.622;9.230;2023-05-12T07:06:19;97599.91;;;13.90;100.00
8894;BME280;4483;48.622;9.230;2023-05-12T07:08:46;97601.41;;;13.94;100.00
8894;BME280;4483;48.622;9.230;2023-05-12T07:11:14;97592.25;;;14.03;100.00
8894;BME280;4483;48.622;9.230;2023-05-12T07:13:44;97585.97;;;14.07;100.00
8894;BME280;4483;48.622;9.230;2023-05-12T07:16:10;97598.28;;;14.18;100.00
8894;BME280;4483;48.622;9.230;2023-05-12T07:18:37;97594.34;;;14.26;100.00
8894;BME280;4483;48.622;9.230;2023-05-12T07:21:04;97596.69;;;14.31;100.00
8894;BME280;4483;48.622;9.230;2023-05-12T07:23:31;97596.03;;;14.27;100.00
8894;BME280;4483;48.622;9.230;2023-05-12T07:25:58;97603.88;;;14.26;100.00
8894;BME280;4483;48.622;9.230;2023-05-12T07:28:27;97596.69;;;14.31;100.00
8894;BME280;4483;48.622;9.230;2023-05-12T07:30:56;97597.06;;;14.39;100.00
8894;BME280;4483;48.622;9.230;2023-05-12T07:33:22;97595.78;;;14.46;100.00
8894;BME280;4483;48.622;9.230;2023-05-12T07:35:49;97594.59;;;14.51;100.00
8894;BME280;4483;48.622;9.230;2023-05-12T07:38:15;97599.31;;;14.59;100.00
8894;BME280;4483;48.622;9.230;2023-05-12T07:40:42;97584.66;;;14.58;100.00
8894;BME280;4483;48.622;9.230;2023-05-12T07:43:09;97594.09;;;14.73;100.00
8894;BME280;4483;48.622;9.230;2023-05-12T07:45:37;97595.03;;;14.86;100.00
8894;BME280;4483;48.622;9.230;2023-05-12T07:48:04;97595.22;;;14.97;100.00
8894;BME280;4483;48.622;9.230;2023-05-12T07:50:31;97591.03;;;15.08;100.00
8894;BME280;4483;48.622;9.230;2023-05-12T07:52:57;97596.16;;;15.23;100.00
8894;BME280;4483;48.622;9.230;2023-05-12T07:55:24;97596.53;;;15.31;100.00
8894;BME280;4483;48.622;9.230;2023-05-12T07:57:51;97593.53;;;15.37;99.60
8894;BME280;4483;48.622;9.230;2023-05-12T08:00:18;97582.84;;;15.55;100.00
8894;BME280;4483;48.622;9.230;2023-05-12T08:02:46;97587.78;;;15.72;99.08
8894;BME280;4483;48.622;9.230;2023-05-12T08:05:12;97587.81;;;15.85;98.35
8894;BME280;4483;48.622;9.230;2023-05-12T08:07:39;97593.97;;;15.96;97.79
8894;BME280;4483;48.622;9.230;2023-05-12T08:10:08;97586.50;;;16.17;96.33
8894;BME280;4483;48.622;9.230;2023-05-12T08:12:35;97587.78;;;16.37;96.22
8894;BME280;4483;48.622;9.230;2023-05-12T08:15:02;97592.06;;;16.50;93.03
8894;BME280;4483;48.622;9.230;2023-05-12T08:17:29;97588.44;;;16.53;91.71
8894;BME280;4483;48.622;9.230;2023-05-12T08:19:57;97590.00;;;16.68;91.96
8894;BME280;4483;48.622;9.230;2023-05-12T08:22:24;97596.31;;;16.89;89.71
8894;BME280;4483;48.622;9.230;2023-05-12T08:24:50;97580.16;;;16.96;88.64
8894;BME280;4483;48.622;9.230;2023-05-12T08:27:17;97594.19;;;16.94;86.71
8894;BME280;4483;48.622;9.230;2023-05-12T08:29:45;97590.28;;;16.76;83.44
8894;BME280;4483;48.622;9.230;2023-05-12T08:32:11;97598.22;;;16.62;85.00
8894;BME280;4483;48.622;9.230;2023-05-12T08:34:38;97593.84;;;16.50;85.00
8894;BME280;4483;48.622;9.230;2023-05-12T08:37:06;97602.16;;;16.42;85.83
8894;BME280;4483;48.622;9.230;2023-05-12T08:39:32;97593.59;;;16.40;85.97
8894;BME280;4483;48.622;9.230;2023-05-12T08:42:06;97595.78;;;16.34;83.88
8894;BME280;4483;48.622;9.230;2023-05-12T08:44:38;97594.75;;;16.36;85.33
8894;BME280;4483;48.622;9.230;2023-05-12T08:47:05;97595.25;;;16.41;84.67
8894;BME280;4483;48.622;9.230;2023-05-12T08:49:34;97599.88;;;16.50;84.49
8894;BME280;4483;48.622;9.230;2023-05-12T08:52:02;97597.47;;;16.60;84.10
8894;BME280;4483;48.622;9.230;2023-05-12T08:54:31;97603.22;;;16.77;84.06
8894;BME280;4483;48.622;9.230;2023-05-12T08:56:58;97597.38;;;16.86;82.68
8894;BME280;4483;48.622;9.230;2023-05-12T08:59:25;97588.81;;;16.97;82.56
8894;BME280;4483;48.622;9.230;2023-05-12T09:01:53;97593.31;;;17.19;82.19
8894;BME280;4483;48.622;9.230;2023-05-12T09:04:20;97582.00;;;17.43;82.08
8894;BME280;4483;48.622;9.230;2023-05-12T09:06:47;97583.50;;;17.82;80.70
8894;BME280;4483;48.622;9.230;2023-05-12T09:09:15;97584.88;;;18.09;77.72
8894;BME280;4483;48.622;9.230;2023-05-12T09:11:45;97578.44;;;18.37;77.67
8894;BME280;4483;48.622;9.230;2023-05-12T09:14:17;97584.31;;;18.63;75.96
8894;BME280;4483;48.622;9.230;2023-05-12T09:16:46;97582.88;;;18.70;73.65
8894;BME280;4483;48.622;9.230;2023-05-12T09:19:18;97584.69;;;18.80;74.20
8894;BME280;4483;48.622;9.230;2023-05-12T09:21:45;97584.53;;;19.15;73.13
8894;BME280;4483;48.622;9.230;2023-05-12T09:24:12;97577.16;;;19.20;71.22
8894;BME280;4483;48.622;9.230;2023-05-12T09:26:47;97584.59;;;19.25;70.80
8894;BME280;4483;48.622;9.230;2023-05-12T09:29:14;97578.13;;;19.19;69.42
8894;BME280;4483;48.622;9.230;2023-05-12T09:31:48;97581.06;;;19.26;69.93
8894;BME280;4483;48.622;9.230;2023-05-12T09:34:16;97569.00;;;19.56;69.75
8894;BME280;4483;48.622;9.230;2023-05-12T09:36:43;97575.25;;;19.76;68.27
8894;BME280;4483;48.622;9.230;2023-05-12T09:39:10;97570.91;;;19.86;68.24
8894;BME280;4483;48.622;9.230;2023-05-12T09:41:38;97576.81;;;19.99;67.93
8894;BME280;4483;48.622;9.230;2023-05-12T09:44:07;97579.38;;;20.10;67.39
8894;BME280;4483;48.622;9.230;2023-05-12T09:46:34;97580.78;;;20.14;65.76
8894;BME280;4483;48.622;9.230;2023-05-12T09:49:01;97574.69;;;19.93;63.78
8894;BME280;4483;48.622;9.230;2023-05-12T09:51:28;97572.34;;;19.90;64.56
8894;BME280;4483;48.622;9.230;2023-05-12T09:53:56;97570.88;;;19.97;64.58
8894;BME280;4483;48.622;9.230;2023-05-12T09:56:26;97562.25;;;19.85;62.82
8894;BME280;4483;48.622;9.230;2023-05-12T09:58:54;97573.03;;;19.92;63.96
8894;BME280;4483;48.622;9.230;2023-05-12T10:01:24;97574.75;;;19.82;62.21
8894;BME280;4483;48.622;9.230;2023-05-12T10:03:53;97575.44;;;19.84;63.28
8894;BME280;4483;48.622;9.230;2023-05-12T10:06:24;97572.84;;;19.84;62.23
8894;BME280;4483;48.622;9.230;2023-05-12T10:09:04;97573.22;;;20.00;62.77
8894;BME280;4483;48.622;9.230;2023-05-12T10:11:33;97577.59;;;20.31;63.13
8894;BME280;4483;48.622;9.230;2023-05-12T10:14:00;97568.81;;;20.32;62.39
8894;BME280;4483;48.622;9.230;2023-05-12T10:16:28;97567.00;;;20.33;62.41
8894;BME280;4483;48.622;9.230;2023-05-12T10:18:55;97570.03;;;20.28;62.37
8894;BME280;4483;48.622;9.230;2023-05-12T10:21:23;97563.50;;;20.23;62.35
8894;BME280;4483;48.622;9.230;2023-05-12T10:23:51;97566.72;;;20.15;62.00
8894;BME280;4483;48.622;9.230;2023-05-12T10:26:19;97568.38;;;19.95;61.14
8894;BME280;4483;48.622;9.230;2023-05-12T10:28:47;97569.38;;;19.63;61.17
8894;BME280;4483;48.622;9.230;2023-05-12T10:31:15;97558.59;;;19.45;62.42
8894;BME280;4483;48.622;9.230;2023-05-12T10:33:43;97570.16;;;19.32;62.46
8894;BME280;4483;48.622;9.230;2023-05-12T10:36:20;97573.72;;;19.20;62.76
8894;BME280;4483;48.622;9.230;2023-05-12T10:38:47;97571.13;;;19.08;63.96
8894;BME280;4483;48.622;9.230;2023-05-12T10:41:15;97575.53;;;18.97;63.85
8894;BME280;4483;48.622;9.230;2023-05-12T10:43:48;97572.69;;;18.89;63.70
8894;BME280;4483;48.622;9.230;2023-05-12T10:46:17;97571.13;;;18.64;63.67
8894;BME280;4483;48.622;9.230;2023-05-12T10:48:53;97571.38;;;18.50;64.63
8894;BME280;4483;48.622;9.230;2023-05-12T10:51:22;97568.50;;;18.53;65.85
8894;BME280;4483;48.622;9.230;2023-05-12T10:53:51;97569.81;;;18.59;66.06
8894;BME280;4483;48.622;9.230;2023-05-12T10:56:39;97569.47;;;18.63;65.21
8894;BME280;4483;48.622;9.230;2023-05-12T10:59:14;97566.16;;;18.72;65.62
8894;BME280;4483;48.622;9.230;2023-05-12T11:01:54;97571.25;;;18.74;65.83
8894;BME280;4483;48.622;9.230;2023-05-12T11:04:33;97569.75;;;18.71;66.04
8894;BME280;4483;48.622;9.230;2023-05-12T11:07:00;97572.22;;;18.62;66.18
8894;BME280;4483;48.622;9.230;2023-05-12T11:09:27;97581.81;;;18.50;66.54
8894;BME280;4483;48.622;9.230;2023-05-12T11:11:53;97573.94;;;18.39;66.53
8894;BME280;4483;48.622;9.230;2023-05-12T11:14:20;97571.44;;;18.38;66.65
8894;BME280;4483;48.622;9.230;2023-05-12T11:16:46;97578.31;;;18.39;66.79
8894;BME280;4483;48.622;9.230;2023-05-12T11:19:13;97581.69;;;18.52;67.05
8894;BME280;4483;48.622;9.230;2023-05-12T11:21:41;97583.00;;;18.57;65.77
8894;BME280;4483;48.622;9.230;2023-05-12T11:24:08;97583.38;;;18.64;65.73
8894;BME280;4483;48.622;9.230;2023-05-12T11:26:36;97586.31;;;18.70;64.98
8894;BME280;4483;48.622;9.230;2023-05-12T11:29:05;97581.69;;;18.85;65.79
8894;BME280;4483;48.622;9.230;2023-05-12T11:31:32;97588.69;;;18.95;64.10
8894;BME280;4483;48.622;9.230;2023-05-12T11:34:02;97590.47;;;19.06;63.67
8894;BME280;4483;48.622;9.230;2023-05-12T11:36:35;97583.72;;;19.03;62.67
8894;BME280;4483;48.622;9.230;2023-05-12T11:39:03;97589.63;;;19.28;63.44
8894;BME280;4483;48.622;9.230;2023-05-12T11:41:30;97582.50;;;19.41;63.63
8894;BME280;4483;48.622;9.230;2023-05-12T11:43:57;97584.38;;;19.50;65.37
8894;BME280;4483;48.622;9.230;2023-05-12T11:46:24;97590.19;;;19.53;66.15
8894;BME280;4483;48.622;9.230;2023-05-12T11:48:55;97589.59;;;19.50;66.90
8894;BME280;4483;48.622;9.230;2023-05-12T11:51:22;97589.44;;;19.62;67.93
8894;BME280;4483;48.622;9.230;2023-05-12T11:53:48;97591.66;;;19.67;68.36
8894;BME280;4483;48.622;9.230;2023-05-12T11:56:21;97588.50;;;19.84;67.44
8894;BME280;4483;48.622;9.230;2023-05-12T11:58:52;97592.09;;;19.83;67.85
8894;BME280;4483;48.622;9.230;2023-05-12T12:01:20;97594.25;;;19.78;66.65
8894;BME280;4483;48.622;9.230;2023-05-12T12:03:47;97599.72;;;19.75;67.42
8894;BME280;4483;48.622;9.230;2023-05-12T12:06:15;97604.25;;;19.73;67.09
8894;BME280;4483;48.622;9.230;2023-05-12T12:08:49;97602.72;;;19.70;67.27
8894;BME280;4483;48.622;9.230;2023-05-12T12:11:16;97603.25;;;19.53;66.45
8894;BME280;4483;48.622;9.230;2023-05-12T12:13:48;97603.38;;;19.30;66.81
8894;BME280;4483;48.622;9.230;2023-05-12T12:16:17;97605.19;;;19.18;67.86
8894;BME280;4483;48.622;9.230;2023-05-12T12:18:43;97610.28;;;19.08;68.19
8894;BME280;4483;48.622;9.230;2023-05-12T12:21:10;97607.47;;;19.00;67.92
8894;BME280;4483;48.622;9.230;2023-05-12T12:23:37;97608.63;;;18.96;68.54
8894;BME280;4483;48.622;9.230;2023-05-12T12:26:03;97611.38;;;18.95;68.73
8894;BME280;4483;48.622;9.230;2023-05-12T12:28:30;97611.13;;;18.87;69.27
8894;BME280;4483;48.622;9.230;2023-05-12T12:30:58;97607.47;;;18.78;69.92
8894;BME280;4483;48.622;9.230;2023-05-12T12:33:24;97614.69;;;18.75;70.38
8894;BME280;4483;48.622;9.230;2023-05-12T12:35:51;97606.97;;;18.73;70.40
8894;BME280;4483;48.622;9.230;2023-05-12T12:38:18;97609.34;;;18.65;70.16
8894;BME280;4483;48.622;9.230;2023-05-12T12:40:45;97607.91;;;18.50;70.11
8894;BME280;4483;48.622;9.230;2023-05-12T12:43:11;97610.56;;;18.38;71.46
8894;BME280;4483;48.622;9.230;2023-05-12T12:45:38;97613.31;;;18.36;71.40
8894;BME280;4483;48.622;9.230;2023-05-12T12:48:06;97610.91;;;18.33;71.28
8894;BME280;4483;48.622;9.230;2023-05-12T12:50:34;97612.47;;;18.36;70.51
8894;BME280;4483;48.622;9.230;2023-05-12T12:53:01;97605.22;;;18.39;70.81
8894;BME280;4483;48.622;9.230;2023-05-12T12:55:27;97612.38;;;18.48;70.81
8894;BME280;4483;48.622;9.230;2023-05-12T12:57:54;97614.53;;;18.54;70.26
8894;BME280;4483;48.622;9.230;2023-05-12T13:00:20;97609.31;;;18.54;70.31
8894;BME280;4483;48.622;9.230;2023-05-12T13:02:48;97608.72;;;18.51;70.68
8894;BME280;4483;48.622;9.230;2023-05-12T13:05:17;97616.88;;;18.46;70.90
8894;BME280;4483;48.622;9.230;2023-05-12T13:07:43;97607.13;;;18.37;70.64
8894;BME280;4483;48.622;9.230;2023-05-12T13:10:10;97617.28;;;18.18;70.85
8894;BME280;4483;48.622;9.230;2023-05-12T13:12:37;97616.84;;;18.00;71.33
8894;BME280;4483;48.622;9.230;2023-05-12T13:15:05;97616.59;;;17.92;71.73
8894;BME280;4483;48.622;9.230;2023-05-12T13:17:32;97616.81;;;17.89;72.30